createdAt,value
2022-09-29T00:01:02.821Z,10.27
2022-09-29T00:03:31.076Z,10.73
2022-09-29T00:05:59.134Z,8.88
2022-09-29T00:08:30.246Z,9.43
2022-09-29T00:10:58.666Z,10.77
2022-09-29T00:13:26.744Z,10.40
2022-09-29T00:16:00.079Z,6.82
2022-09-29T00:18:28.792Z,10.85
2022-09-29T00:21:01.642Z,7.38
2022-09-29T00:23:32.498Z,12.75
2022-09-29T00:26:02.943Z,12.65
2022-09-29T00:28:31.812Z,15.02
2022-09-29T00:31:01.375Z,10.35
2022-09-29T00:33:31.408Z,9.70
2022-09-29T00:36:01.473Z,7.97
2022-09-29T00:38:31.789Z,9.73
2022-09-29T00:41:00.594Z,9.52
2022-09-29T00:43:54.688Z,7.72
2022-09-29T00:46:29.654Z,9.60
2022-09-29T00:49:01.154Z,8.73
2022-09-29T00:51:31.549Z,7.97
2022-09-29T00:54:01.967Z,8.18
2022-09-29T00:56:32.209Z,13.00
2022-09-29T00:59:04.178Z,11.25
2022-09-29T01:01:33.570Z,9.88
2022-09-29T01:04:06.132Z,11.15
2022-09-29T01:06:39.068Z,11.38
2022-09-29T01:09:11.394Z,10.60
2022-09-29T01:11:39.422Z,12.43
2022-09-29T01:14:09.620Z,12.40
2022-09-29T01:16:42.315Z,11.48
2022-09-29T01:19:16.131Z,14.32
2022-09-29T01:21:59.223Z,12.48
2022-09-29T01:24:57.326Z,8.25
2022-09-29T01:27:58.359Z,11.43
2022-09-29T01:30:42.033Z,14.32
2022-09-29T01:33:24.626Z,12.73
2022-09-29T01:36:00.657Z,11.02
2022-09-29T01:38:40.591Z,13.27
2022-09-29T01:41:13.312Z,9.45
2022-09-29T01:46:19.626Z,11.35
2022-09-29T01:48:52.669Z,9.38
2022-09-29T01:51:24.698Z,11.63
2022-09-29T01:53:57.258Z,11.07
2022-09-29T01:56:30.052Z,13.40
2022-09-29T01:59:00.978Z,13.88
2022-09-29T02:01:35.862Z,12.50
2022-09-29T02:04:07.380Z,12.30
2022-09-29T02:06:40.556Z,10.25
2022-09-29T02:09:13.792Z,9.27
2022-09-29T02:11:43.956Z,11.65
2022-09-29T02:14:17.899Z,10.68
2022-09-29T02:16:51.849Z,11.93
2022-09-29T02:19:22.150Z,12.07
2022-09-29T02:21:52.097Z,10.05
2022-09-29T02:24:20.389Z,13.23
2022-09-29T02:26:49.100Z,11.38
2022-09-29T02:29:18.611Z,12.77
2022-09-29T02:31:48.674Z,13.40
2022-09-29T02:34:20.586Z,12.13
2022-09-29T02:36:59.452Z,13.88
2022-09-29T02:39:41.490Z,10.95
2022-09-29T02:42:19.551Z,12.60
2022-09-29T02:45:04.415Z,10.52
2022-09-29T02:47:45.936Z,14.48
2022-09-29T02:50:42.171Z,13.73
2022-09-29T02:53:20.115Z,14.27
2022-09-29T02:55:57.328Z,16.50
2022-09-29T02:58:32.028Z,16.38
2022-09-29T03:01:01.254Z,22.33
2022-09-29T03:03:30.770Z,17.20
2022-09-29T03:05:59.051Z,18.73
2022-09-29T03:08:27.079Z,17.30
2022-09-29T03:10:55.084Z,13.98
2022-09-29T03:13:23.057Z,22.20
2022-09-29T03:15:51.106Z,22.50
2022-09-29T03:18:19.142Z,26.75
2022-09-29T03:20:48.552Z,24.00
2022-09-29T03:23:17.439Z,24.35
2022-09-29T03:25:45.522Z,23.80
2022-09-29T03:28:13.540Z,17.13
2022-09-29T03:30:41.542Z,23.70
2022-09-29T03:33:09.579Z,25.25
2022-09-29T03:35:39.495Z,17.17
2022-09-29T03:38:11.819Z,18.23
2022-09-29T03:40:40.158Z,18.85
2022-09-29T03:43:08.178Z,22.05
2022-09-29T03:45:36.259Z,17.67
2022-09-29T03:48:04.299Z,18.15
2022-09-29T03:50:32.401Z,21.17
2022-09-29T03:53:00.432Z,19.88
2022-09-29T03:55:29.844Z,27.50
2022-09-29T03:57:57.835Z,21.60
2022-09-29T04:00:25.795Z,24.67
2022-09-29T04:02:55.911Z,23.40
2022-09-29T04:05:24.136Z,26.92
2022-09-29T04:07:52.207Z,26.13
2022-09-29T04:10:20.206Z,23.50
2022-09-29T04:12:49.620Z,28.25
2022-09-29T04:15:17.613Z,23.48
2022-09-29T04:17:45.691Z,27.45
2022-09-29T04:20:13.704Z,26.75
2022-09-29T04:22:41.685Z,24.88
2022-09-29T04:25:10.529Z,29.17
2022-09-29T04:27:38.750Z,29.80
2022-09-29T04:30:09.736Z,32.88
2022-09-29T04:32:37.756Z,30.05
2022-09-29T04:35:06.689Z,31.60
2022-09-29T04:37:34.698Z,37.88
2022-09-29T04:40:04.153Z,32.45
2022-09-29T04:42:32.332Z,32.40
2022-09-29T04:45:00.315Z,31.92
2022-09-29T04:47:29.717Z,32.78
2022-09-29T04:49:57.758Z,31.10
2022-09-29T04:52:25.716Z,33.80
2022-09-29T04:54:53.717Z,36.78
2022-09-29T04:57:21.703Z,39.10
2022-09-29T04:59:51.937Z,36.33
2022-09-29T05:02:20.453Z,34.40
2022-09-29T05:04:49.894Z,36.95
2022-09-29T05:07:18.150Z,39.25
2022-09-29T05:09:46.398Z,37.95
2022-09-29T05:12:14.811Z,32.40
2022-09-29T05:14:42.850Z,40.35
2022-09-29T05:17:10.900Z,37.90
2022-09-29T05:19:38.861Z,37.08
2022-09-29T05:22:08.655Z,45.15
2022-09-29T05:24:36.646Z,35.80
2022-09-29T05:27:04.883Z,38.22
2022-09-29T05:29:32.973Z,42.72
2022-09-29T05:32:01.054Z,45.05
2022-09-29T05:34:29.146Z,45.22
2022-09-29T05:36:57.256Z,44.80
2022-09-29T05:39:26.652Z,40.35
2022-09-29T05:41:57.637Z,42.17
2022-09-29T05:44:28.054Z,33.72
2022-09-29T05:46:56.130Z,35.40
2022-09-29T05:49:24.192Z,44.38
2022-09-29T05:51:52.178Z,41.88
2022-09-29T05:54:20.183Z,44.97
2022-09-29T05:56:49.575Z,44.80
2022-09-29T05:59:17.618Z,41.78
2022-09-29T06:01:45.726Z,37.22
2022-09-29T06:04:13.773Z,39.58
2022-09-29T06:06:41.783Z,38.50
2022-09-29T06:09:10.018Z,39.28
2022-09-29T06:11:38.003Z,36.38
2022-09-29T06:14:07.405Z,38.80
2022-09-29T06:16:35.772Z,35.67
2022-09-29T06:19:05.498Z,36.70
2022-09-29T06:21:35.544Z,31.23
2022-09-29T06:24:03.858Z,29.85
2022-09-29T06:26:31.865Z,24.85
2022-09-29T06:28:59.906Z,25.35
2022-09-29T06:31:31.985Z,36.10
2022-09-29T06:34:01.143Z,28.83
2022-09-29T06:36:50.381Z,29.77
2022-09-29T06:39:18.801Z,30.77
2022-09-29T06:41:52.278Z,24.80
2022-09-29T06:44:20.793Z,27.30
2022-09-29T06:46:51.301Z,23.83
2022-09-29T06:49:20.499Z,23.38
2022-09-29T06:51:48.875Z,25.08
2022-09-29T06:54:18.741Z,25.42
2022-09-29T06:56:48.507Z,25.20
2022-09-29T06:59:16.683Z,20.17
2022-09-29T07:01:45.457Z,17.15
2022-09-29T07:04:14.892Z,14.95
2022-09-29T07:06:43.099Z,17.02
2022-09-29T07:09:16.034Z,22.02
2022-09-29T07:11:46.923Z,16.90
2022-09-29T07:14:15.097Z,11.82
2022-09-29T07:16:43.476Z,8.80
2022-09-29T07:19:11.985Z,13.57
2022-09-29T07:21:41.661Z,15.35
2022-09-29T07:24:10.406Z,9.98
2022-09-29T07:26:38.631Z,15.30
2022-09-29T07:29:09.236Z,11.63
2022-09-29T07:31:49.817Z,10.07
2022-09-29T07:34:19.396Z,8.93
2022-09-29T07:36:48.890Z,8.85
2022-09-29T07:39:17.034Z,14.00
2022-09-29T07:41:45.023Z,15.73
2022-09-29T07:44:13.260Z,8.65
2022-09-29T07:46:41.289Z,9.65
2022-09-29T07:49:09.485Z,7.75
2022-09-29T07:51:37.532Z,5.18
2022-09-29T07:54:07.055Z,4.97
2022-09-29T07:56:35.530Z,6.45
2022-09-29T07:59:04.414Z,5.88
2022-09-29T08:01:33.060Z,6.13
2022-09-29T08:04:02.236Z,6.72
2022-09-29T08:06:30.471Z,10.77
2022-09-29T08:09:04.293Z,7.28
2022-09-29T08:11:38.089Z,9.85
2022-09-29T08:14:06.555Z,8.60
2022-09-29T08:16:35.303Z,8.23
2022-09-29T08:19:03.928Z,9.05
2022-09-29T08:21:36.553Z,9.98
2022-09-29T08:26:43.435Z,69.97
2022-09-29T08:29:16.257Z,81.72
2022-09-29T08:31:45.341Z,31.65
2022-09-29T08:34:14.837Z,18.70
2022-09-29T08:36:43.639Z,12.73
2022-09-29T08:39:13.152Z,12.75
2022-09-29T08:42:06.734Z,10.15
2022-09-29T08:44:52.410Z,16.73
2022-09-29T08:47:42.801Z,8.20
2022-09-29T08:52:52.637Z,10.15
2022-09-29T08:55:30.312Z,9.93
2022-09-29T08:58:02.647Z,12.05
2022-09-29T09:00:40.664Z,10.70
2022-09-29T09:03:32.619Z,10.60
2022-09-29T09:06:17.192Z,7.35
2022-09-29T09:09:18.913Z,7.80
2022-09-29T09:12:23.087Z,4.63
2022-09-29T09:15:07.345Z,7.57
2022-09-29T09:17:55.047Z,4.80
2022-09-29T09:20:34.690Z,10.15
2022-09-29T09:23:10.209Z,9.65
2022-09-29T09:25:42.611Z,3.58
2022-09-29T09:28:17.598Z,4.25
2022-09-29T09:30:52.308Z,3.72
2022-09-29T09:33:31.954Z,6.55
2022-09-29T09:36:04.995Z,3.47
2022-09-29T09:38:45.580Z,5.82
2022-09-29T09:41:17.456Z,4.30
2022-09-29T09:43:50.235Z,4.15
2022-09-29T09:46:32.280Z,4.15
2022-09-29T09:49:07.422Z,3.17
2022-09-29T09:54:26.358Z,6.97
2022-09-29T09:57:25.365Z,4.63
2022-09-29T10:00:05.858Z,1.83
2022-09-29T10:02:35.501Z,3.47
2022-09-29T10:05:07.526Z,1.40
2022-09-29T10:07:37.643Z,1.48
2022-09-29T10:10:15.264Z,3.03
2022-09-29T10:12:43.278Z,4.00
2022-09-29T10:15:19.870Z,4.63
2022-09-29T10:18:00.009Z,3.72
2022-09-29T10:20:34.760Z,4.18
2022-09-29T10:23:21.768Z,5.30
2022-09-29T10:25:56.517Z,6.90
2022-09-29T10:28:26.166Z,7.35
2022-09-29T10:30:56.076Z,4.97
2022-09-29T10:33:27.718Z,4.25
2022-09-29T10:36:10.159Z,1.90
2022-09-29T10:38:38.988Z,10.27
2022-09-29T10:41:09.010Z,7.20
2022-09-29T10:43:39.510Z,2.15
2022-09-29T10:46:28.357Z,3.35
2022-09-29T10:49:12.207Z,7.00
2022-09-29T10:51:41.444Z,5.22
2022-09-29T10:54:28.319Z,7.05
2022-09-29T10:56:58.324Z,6.63
2022-09-29T10:59:27.147Z,2.58
2022-09-29T11:01:58.784Z,4.32
2022-09-29T11:04:31.833Z,4.68
2022-09-29T11:07:10.339Z,6.72
2022-09-29T11:09:40.954Z,3.42
2022-09-29T11:12:28.688Z,1.65
2022-09-29T11:14:56.960Z,1.67
2022-09-29T11:17:27.401Z,3.17
2022-09-29T11:19:59.616Z,1.15
2022-09-29T11:22:57.718Z,1.25
2022-09-29T11:25:39.946Z,2.53
2022-09-29T11:28:33.054Z,1.35
2022-09-29T11:31:16.280Z,4.72
2022-09-29T11:33:55.770Z,4.00
2022-09-29T11:36:32.363Z,6.25
2022-09-29T11:39:24.679Z,2.80
2022-09-29T11:42:05.748Z,3.58
2022-09-29T11:44:49.708Z,2.25
2022-09-29T11:47:37.135Z,3.20
2022-09-29T11:50:25.496Z,2.08
2022-09-29T11:53:08.327Z,3.90
2022-09-29T11:55:48.845Z,1.17
2022-09-29T11:58:30.550Z,1.92
2022-09-29T12:01:09.529Z,3.00
2022-09-29T12:03:45.236Z,3.05
2022-09-29T12:06:49.822Z,3.30
2022-09-29T12:09:34.065Z,3.60
2022-09-29T12:12:23.115Z,4.35
2022-09-29T12:15:14.742Z,3.95
2022-09-29T12:17:48.474Z,4.20
2022-09-29T12:20:21.386Z,1.75
2022-09-29T12:22:52.145Z,3.67
2022-09-29T12:25:26.114Z,1.35
2022-09-29T12:27:58.458Z,1.45
2022-09-29T12:30:30.179Z,4.30
2022-09-29T12:33:03.556Z,1.35
2022-09-29T12:35:39.202Z,2.20
2022-09-29T12:38:16.790Z,4.68
2022-09-29T12:40:51.448Z,1.70
2022-09-29T12:43:25.321Z,3.78
2022-09-29T12:46:01.979Z,1.40
2022-09-29T12:48:43.762Z,2.33
2022-09-29T12:51:19.217Z,1.67
2022-09-29T12:54:01.104Z,2.47
2022-09-29T12:56:36.439Z,1.63
2022-09-29T12:59:08.786Z,2.25
2022-09-29T13:01:38.974Z,6.18
2022-09-29T13:04:54.623Z,12.27
2022-09-29T13:07:57.893Z,7.43
2022-09-29T13:10:59.621Z,4.40
2022-09-29T13:14:07.760Z,3.35
2022-09-29T13:16:54.221Z,15.43
2022-09-29T13:19:59.771Z,2.05
2022-09-29T13:22:47.924Z,6.50
2022-09-29T13:25:24.146Z,6.13
2022-09-29T13:27:54.897Z,8.68
2022-09-29T13:30:28.815Z,4.20
2022-09-29T13:33:04.098Z,3.47
2022-09-29T13:35:40.029Z,5.53
2022-09-29T13:38:09.861Z,4.47
2022-09-29T13:40:37.835Z,6.47
2022-09-29T13:43:06.356Z,3.33
2022-09-29T13:45:47.950Z,4.90
2022-09-29T13:48:48.746Z,5.32
2022-09-29T13:51:40.520Z,3.92
2022-09-29T13:54:30.022Z,6.88
2022-09-29T13:57:28.061Z,3.40
2022-09-29T14:00:21.748Z,3.70
2022-09-29T14:03:23.639Z,9.23
2022-09-29T14:05:57.219Z,3.50
2022-09-29T14:08:32.381Z,5.90
2022-09-29T14:11:05.232Z,5.53
2022-09-29T14:13:42.138Z,5.25
2022-09-29T14:16:29.638Z,3.78
2022-09-29T14:19:06.566Z,4.53
2022-09-29T14:21:50.749Z,4.38
2022-09-29T14:24:43.317Z,5.00
2022-09-29T14:27:24.573Z,3.38
2022-09-29T14:29:59.380Z,3.92
2022-09-29T14:32:42.011Z,5.18
2022-09-29T14:35:21.220Z,2.47
2022-09-29T14:37:59.119Z,3.60
2022-09-29T14:40:30.282Z,2.90
2022-09-29T14:43:16.141Z,2.78
2022-09-29T14:46:36.962Z,2.72
2022-09-29T14:49:49.618Z,3.90
2022-09-29T14:52:30.431Z,6.60
2022-09-29T14:58:14.759Z,6.10
2022-09-29T15:00:57.858Z,4.75
2022-09-29T15:03:31.019Z,5.22
2022-09-29T15:06:12.186Z,3.10
2022-09-29T15:08:42.671Z,3.60
2022-09-29T15:11:27.944Z,2.95
2022-09-29T15:13:56.852Z,5.82
2022-09-29T15:16:33.254Z,7.97
2022-09-29T15:19:20.435Z,4.35
2022-09-29T15:21:56.958Z,5.25
2022-09-29T15:25:00.212Z,6.10
2022-09-29T15:27:28.269Z,6.10
2022-09-29T15:29:58.497Z,5.25
2022-09-29T15:32:29.693Z,2.42
2022-09-29T15:35:04.973Z,6.38
2022-09-29T15:38:00.278Z,2.65
2022-09-29T15:40:37.968Z,2.72
2022-09-29T15:43:22.623Z,2.70
2022-09-29T15:46:00.724Z,4.90
2022-09-29T15:48:31.348Z,4.18
2022-09-29T15:51:02.001Z,6.72
2022-09-29T15:53:31.307Z,5.40
2022-09-29T15:56:00.843Z,4.68
2022-09-29T15:58:45.459Z,7.30
2022-09-29T16:01:15.281Z,4.90
2022-09-29T16:03:50.828Z,11.55
2022-09-29T16:06:24.768Z,7.55
2022-09-29T16:08:56.708Z,6.35
2022-09-29T16:11:28.318Z,8.60
2022-09-29T16:14:02.685Z,9.75
2022-09-29T16:16:35.735Z,9.05
2022-09-29T16:19:10.906Z,7.60
2022-09-29T16:21:39.829Z,5.53
2022-09-29T16:24:15.610Z,11.25
2022-09-29T16:26:47.646Z,12.88
2022-09-29T16:29:33.471Z,6.38
2022-09-29T16:32:23.621Z,5.97
2022-09-29T16:34:51.633Z,9.80
2022-09-29T16:37:20.419Z,8.32
2022-09-29T16:39:50.391Z,10.07
2022-09-29T16:42:23.325Z,9.90
2022-09-29T16:44:54.035Z,9.98
2022-09-29T16:47:25.664Z,9.45
2022-09-29T16:49:55.613Z,15.25
2022-09-29T16:52:28.580Z,13.13
2022-09-29T16:55:13.931Z,9.95
2022-09-29T16:57:52.546Z,9.75
2022-09-29T17:00:20.786Z,12.10
2022-09-29T17:02:52.407Z,13.57
2022-09-29T17:05:22.018Z,10.07
2022-09-29T17:07:51.340Z,10.23
2022-09-29T17:10:22.488Z,12.05
2022-09-29T17:12:51.861Z,10.15
2022-09-29T17:15:20.244Z,11.38
2022-09-29T17:17:49.841Z,15.25
2022-09-29T17:20:20.249Z,14.07
2022-09-29T17:22:49.165Z,16.40
2022-09-29T17:25:17.247Z,18.48
2022-09-29T17:28:03.202Z,8.80
2022-09-29T17:30:32.595Z,27.58
2022-09-29T17:33:01.078Z,13.63
2022-09-29T17:35:33.640Z,9.40
2022-09-29T17:38:01.754Z,10.48
2022-09-29T17:40:35.620Z,8.23
2022-09-29T17:43:03.669Z,6.50
2022-09-29T17:45:35.443Z,7.40
2022-09-29T17:48:05.051Z,7.37
2022-09-29T17:50:36.818Z,6.78
2022-09-29T17:53:05.947Z,15.90
2022-09-29T17:55:35.284Z,9.15
2022-09-29T17:58:03.960Z,8.10
2022-09-29T18:00:38.393Z,14.25
2022-09-29T18:03:06.915Z,8.65
2022-09-29T18:05:34.938Z,10.50
2022-09-29T18:08:03.788Z,8.32
2022-09-29T18:10:37.482Z,6.60
2022-09-29T18:13:05.977Z,16.65
2022-09-29T18:15:36.265Z,14.15
2022-09-29T18:18:06.438Z,12.07
2022-09-29T18:20:36.204Z,11.15
2022-09-29T18:23:04.514Z,18.65
2022-09-29T18:25:33.867Z,14.93
2022-09-29T18:28:02.877Z,13.05
2022-09-29T18:30:32.837Z,10.68
2022-09-29T18:33:02.766Z,13.18
2022-09-29T18:35:33.502Z,15.98
2022-09-29T18:38:02.309Z,10.73
2022-09-29T18:40:32.441Z,11.15
2022-09-29T18:43:00.803Z,10.52
2022-09-29T18:45:31.905Z,11.40
2022-09-29T18:48:04.014Z,19.10
2022-09-29T18:50:34.580Z,16.25
2022-09-29T18:53:03.038Z,15.00
2022-09-29T18:55:32.776Z,14.00
2022-09-29T18:58:01.494Z,16.58
2022-09-29T19:00:32.437Z,13.68
2022-09-29T19:03:03.006Z,9.50
2022-09-29T19:05:31.995Z,10.95
2022-09-29T19:08:02.491Z,13.60
2022-09-29T19:10:32.680Z,9.50
2022-09-29T19:13:04.485Z,7.68
2022-09-29T19:15:35.520Z,9.18
2022-09-29T19:18:06.214Z,11.15
2022-09-29T19:20:36.173Z,11.45
2022-09-29T19:23:05.850Z,20.42
2022-09-29T19:25:37.041Z,15.82
2022-09-29T19:28:07.108Z,14.68
2022-09-29T19:30:38.285Z,11.80
2022-09-29T19:33:09.568Z,17.80
2022-09-29T19:35:37.947Z,16.73
2022-09-29T19:38:06.224Z,12.02
2022-09-29T19:40:37.694Z,10.95
2022-09-29T19:43:06.259Z,13.23
2022-09-29T19:45:37.704Z,15.55
2022-09-29T19:48:09.035Z,14.05
2022-09-29T19:50:54.578Z,17.17
2022-09-29T19:53:22.903Z,15.57
2022-09-29T19:55:52.853Z,12.90
2022-09-29T19:58:21.599Z,20.00
2022-09-29T20:00:50.039Z,13.35
2022-09-29T20:03:19.668Z,14.25
2022-09-29T20:05:47.762Z,15.00
2022-09-29T20:08:16.242Z,13.63
2022-09-29T20:10:44.335Z,14.00
2022-09-29T20:13:15.106Z,15.95
2022-09-29T20:15:46.586Z,19.60
2022-09-29T20:18:15.655Z,13.30
2022-09-29T20:20:45.094Z,12.45
2022-09-29T20:23:13.181Z,13.00
2022-09-29T20:25:41.174Z,9.25
2022-09-29T20:28:14.359Z,9.88
2022-09-29T20:30:43.382Z,8.55
2022-09-29T20:33:11.688Z,9.20
2022-09-29T20:35:40.503Z,12.77
2022-09-29T20:38:11.585Z,14.05
2022-09-29T20:40:42.647Z,13.77
2022-09-29T20:43:14.254Z,15.07
2022-09-29T20:45:43.426Z,17.10
2022-09-29T20:48:11.686Z,17.73
2022-09-29T20:50:45.171Z,18.08
2022-09-29T20:53:14.983Z,14.00
2022-09-29T20:55:42.949Z,14.75
2022-09-29T20:58:11.671Z,15.70
2022-09-29T21:00:40.255Z,14.63
2022-09-29T21:03:08.225Z,15.60
2022-09-29T21:05:36.235Z,12.57
2022-09-29T21:08:04.541Z,15.57
2022-09-29T21:10:34.857Z,14.23
2022-09-29T21:13:03.394Z,16.65
2022-09-29T21:15:31.508Z,17.63
2022-09-29T21:17:59.544Z,14.85
2022-09-29T21:20:28.069Z,17.33
2022-09-29T21:22:56.460Z,22.77
2022-09-29T21:25:26.775Z,25.23
2022-09-29T21:27:56.167Z,22.35
2022-09-29T21:30:24.236Z,29.73
2022-09-29T21:32:52.243Z,26.65
2022-09-29T21:35:20.195Z,31.17
2022-09-29T21:37:48.681Z,22.27
2022-09-29T21:40:16.875Z,26.40
2022-09-29T21:42:44.903Z,23.27
2022-09-29T21:45:14.378Z,24.40
2022-09-29T21:47:59.668Z,20.92
2022-09-29T21:50:27.733Z,23.10
2022-09-29T21:52:55.699Z,20.17
2022-09-29T21:55:23.700Z,22.83
2022-09-29T21:57:51.758Z,20.55
2022-09-29T22:00:21.515Z,21.40
2022-09-29T22:02:50.381Z,19.08
2022-09-29T22:05:18.921Z,21.13
2022-09-29T22:07:47.749Z,24.52
2022-09-29T22:10:15.807Z,28.05
2022-09-29T22:12:43.905Z,21.70
2022-09-29T22:15:12.083Z,18.92
2022-09-29T22:17:41.710Z,23.95
2022-09-29T22:20:10.594Z,33.13
2022-09-29T22:22:38.590Z,23.02
2022-09-29T22:25:07.481Z,18.00
2022-09-29T22:27:35.508Z,20.73
2022-09-29T22:30:03.524Z,20.27
2022-09-29T22:32:31.505Z,22.45
2022-09-29T22:35:00.890Z,28.00
2022-09-29T22:37:31.113Z,22.85
2022-09-29T22:39:59.310Z,28.27
2022-09-29T22:42:27.286Z,21.88
2022-09-29T22:44:55.252Z,25.05
2022-09-29T22:47:23.312Z,25.38
2022-09-29T22:49:51.289Z,22.42
2022-09-29T22:52:20.676Z,27.60
2022-09-29T22:54:48.722Z,25.23
2022-09-29T22:57:16.712Z,31.23
2022-09-29T22:59:44.689Z,23.77
2022-09-29T23:02:12.738Z,28.83
2022-09-29T23:04:40.807Z,24.58
2022-09-29T23:07:10.170Z,27.02
2022-09-29T23:09:39.577Z,24.27
2022-09-29T23:12:08.047Z,23.25
2022-09-29T23:14:36.183Z,28.75
2022-09-29T23:17:04.150Z,27.33
2022-09-29T23:19:32.355Z,26.40
2022-09-29T23:22:00.385Z,29.13
2022-09-29T23:24:28.423Z,27.63
2022-09-29T23:27:00.214Z,30.45
2022-09-29T23:29:28.210Z,32.03
2022-09-29T23:31:56.263Z,35.88
2022-09-29T23:34:24.768Z,25.60
2022-09-29T23:36:52.912Z,25.83
2022-09-29T23:39:19.920Z,20.42
2022-09-29T23:41:50.005Z,22.48
2022-09-29T23:44:21.592Z,22.63
2022-09-29T23:46:49.962Z,21.85
2022-09-29T23:49:19.702Z,29.42
2022-09-29T23:51:50.150Z,20.13
2022-09-29T23:54:21.881Z,23.80
2022-09-29T23:56:51.518Z,25.38
2022-09-29T23:59:21.674Z,24.80
